createdAt,value
2023-01-23T00:00:56.412Z,5.52
2023-01-23T00:03:23.008Z,5.56
2023-01-23T00:06:04.155Z,5.55
2023-01-23T00:08:30.767Z,4.91
2023-01-23T00:10:57.751Z,5.34
2023-01-23T00:13:26.648Z,5.40
2023-01-23T00:15:53.142Z,4.54
2023-01-23T00:18:19.514Z,5.31
2023-01-23T00:20:45.871Z,5.33
2023-01-23T00:23:13.360Z,4.86
2023-01-23T00:25:39.869Z,5.34
2023-01-23T00:28:06.341Z,5.36
2023-01-23T00:30:33.555Z,5.55
2023-01-23T00:33:00.251Z,4.90
2023-01-23T00:35:26.597Z,5.43
2023-01-23T00:37:53.108Z,5.48
2023-01-23T00:40:19.865Z,5.42
2023-01-23T00:42:46.344Z,5.40
2023-01-23T00:45:12.767Z,5.07
2023-01-23T00:47:39.207Z,5.53
2023-01-23T00:50:05.859Z,5.62
2023-01-23T00:52:32.185Z,5.06
2023-01-23T00:54:58.732Z,5.52
2023-01-23T00:57:25.106Z,5.47
2023-01-23T00:59:51.443Z,5.47
2023-01-23T01:02:17.892Z,5.49
2023-01-23T01:04:44.259Z,5.26
2023-01-23T01:07:10.611Z,5.47
2023-01-23T01:09:36.936Z,5.34
2023-01-23T01:12:03.424Z,5.22
2023-01-23T01:14:29.862Z,5.42
2023-01-23T01:16:56.300Z,5.53
2023-01-23T01:19:22.610Z,5.55
2023-01-23T01:21:48.981Z,4.94
2023-01-23T01:24:15.368Z,5.20
2023-01-23T01:26:41.989Z,5.20
2023-01-23T01:29:08.364Z,5.05
2023-01-23T01:31:34.849Z,5.48
2023-01-23T01:34:01.303Z,4.95
2023-01-23T01:36:27.675Z,5.53
2023-01-23T01:38:54.015Z,5.00
2023-01-23T01:41:21.563Z,5.16
2023-01-23T01:43:47.966Z,5.59
2023-01-23T01:46:32.691Z,5.44
2023-01-23T01:49:05.931Z,5.65
2023-01-23T01:51:50.332Z,5.68
2023-01-23T01:54:21.908Z,5.70
2023-01-23T01:56:53.397Z,5.58
2023-01-23T01:59:23.039Z,5.27
2023-01-23T02:01:53.550Z,5.65
2023-01-23T02:04:20.295Z,5.19
2023-01-23T02:06:46.984Z,5.36
2023-01-23T02:09:21.465Z,5.35
2023-01-23T02:11:49.346Z,5.74
2023-01-23T02:14:16.507Z,5.29
2023-01-23T02:16:50.049Z,5.04
2023-01-23T02:19:27.851Z,5.24
2023-01-23T02:22:05.357Z,5.53
2023-01-23T02:24:39.143Z,5.10
2023-01-23T02:27:05.532Z,5.43
2023-01-23T02:29:48.188Z,5.41
2023-01-23T02:32:14.613Z,5.53
2023-01-23T02:34:42.272Z,5.34
2023-01-23T02:37:09.168Z,4.80
2023-01-23T02:39:35.503Z,4.97
2023-01-23T02:42:02.937Z,5.24
2023-01-23T02:44:34.179Z,5.62
2023-01-23T02:47:03.920Z,5.67
2023-01-23T02:49:30.791Z,5.49
2023-01-23T02:51:57.255Z,5.47
2023-01-23T02:54:24.737Z,5.52
2023-01-23T02:56:51.609Z,5.55
2023-01-23T02:59:36.521Z,5.36
2023-01-23T03:02:06.081Z,5.57
2023-01-23T03:04:32.493Z,5.33
2023-01-23T03:06:59.244Z,5.60
2023-01-23T03:09:25.771Z,5.28
2023-01-23T03:11:52.280Z,5.16
2023-01-23T03:14:21.919Z,5.70
2023-01-23T03:16:51.407Z,5.56
2023-01-23T03:19:19.402Z,5.68
2023-01-23T03:21:45.883Z,5.48
2023-01-23T03:24:14.132Z,5.29
2023-01-23T03:26:42.220Z,5.28
2023-01-23T03:29:33.334Z,5.54
2023-01-23T03:31:59.995Z,5.48
2023-01-23T03:34:26.404Z,5.62
2023-01-23T03:36:52.917Z,5.57
2023-01-23T03:39:38.122Z,4.98
2023-01-23T03:42:04.488Z,5.46
2023-01-23T03:44:30.832Z,5.64
2023-01-23T03:46:57.260Z,5.48
2023-01-23T03:49:23.649Z,5.63
2023-01-23T03:51:50.017Z,5.57
2023-01-23T03:54:16.463Z,5.38
2023-01-23T03:56:42.932Z,5.55
2023-01-23T03:59:09.954Z,5.61
2023-01-23T04:01:37.028Z,5.43
2023-01-23T04:04:03.940Z,4.93
2023-01-23T04:06:30.810Z,5.49
2023-01-23T04:08:58.183Z,4.86
2023-01-23T04:11:26.331Z,5.09
2023-01-23T04:13:54.155Z,5.75
2023-01-23T04:16:22.736Z,5.76
2023-01-23T04:18:50.413Z,5.56
2023-01-23T04:21:17.703Z,5.26
2023-01-23T04:23:44.296Z,5.28
2023-01-23T04:26:10.800Z,5.03
2023-01-23T04:28:37.217Z,5.31
2023-01-23T04:31:03.847Z,5.29
2023-01-23T04:33:30.480Z,5.49
2023-01-23T04:35:59.150Z,5.57
2023-01-23T04:38:28.128Z,5.34
2023-01-23T04:40:55.286Z,5.49
2023-01-23T04:43:22.219Z,5.05
2023-01-23T04:45:54.876Z,5.48
2023-01-23T04:48:21.976Z,5.55
2023-01-23T04:50:50.009Z,4.96
2023-01-23T04:53:16.716Z,5.05
2023-01-23T04:55:43.053Z,5.39
2023-01-23T04:58:11.270Z,4.97
2023-01-23T05:00:38.190Z,5.39
2023-01-23T05:03:05.008Z,5.62
2023-01-23T05:05:31.759Z,5.02
2023-01-23T05:07:58.110Z,5.46
2023-01-23T05:10:24.477Z,4.95
2023-01-23T05:12:50.821Z,5.48
2023-01-23T05:15:17.335Z,5.57
2023-01-23T05:17:43.936Z,5.70
2023-01-23T05:20:11.077Z,5.28
2023-01-23T05:22:37.496Z,5.42
2023-01-23T05:25:04.110Z,5.46
2023-01-23T05:27:30.510Z,5.71
2023-01-23T05:29:56.824Z,5.46
2023-01-23T05:32:23.222Z,5.59
2023-01-23T05:34:49.557Z,5.30
2023-01-23T05:37:16.158Z,5.47
2023-01-23T05:39:42.616Z,5.48
2023-01-23T05:42:08.966Z,5.56
2023-01-23T05:44:35.339Z,5.08
2023-01-23T05:47:01.678Z,5.60
2023-01-23T05:49:27.989Z,5.57
2023-01-23T05:51:54.334Z,5.57
2023-01-23T05:54:20.720Z,5.48
2023-01-23T05:56:47.086Z,5.38
2023-01-23T05:59:13.400Z,5.67
2023-01-23T06:01:39.757Z,5.56
2023-01-23T06:04:06.075Z,5.77
2023-01-23T06:06:32.780Z,5.59
2023-01-23T06:09:00.331Z,5.58
2023-01-23T06:11:26.736Z,5.72
2023-01-23T06:13:53.080Z,5.17
2023-01-23T06:16:19.494Z,5.43
2023-01-23T06:18:45.876Z,5.36
2023-01-23T06:21:12.295Z,5.59
2023-01-23T06:23:38.684Z,5.55
2023-01-23T06:26:05.421Z,5.30
2023-01-23T06:28:31.928Z,5.77
2023-01-23T06:31:02.460Z,5.77
2023-01-23T06:33:29.227Z,5.45
2023-01-23T06:36:00.195Z,5.58
2023-01-23T06:38:27.984Z,5.58
2023-01-23T06:40:54.509Z,5.17
2023-01-23T06:43:21.721Z,5.44
2023-01-23T06:45:48.472Z,5.78
2023-01-23T06:48:15.151Z,5.68
2023-01-23T06:50:43.510Z,5.61
2023-01-23T06:53:15.037Z,5.17
2023-01-23T06:55:41.414Z,5.62
2023-01-23T06:58:07.854Z,5.84
2023-01-23T07:00:34.363Z,5.05
2023-01-23T07:03:03.719Z,5.81
2023-01-23T07:05:31.138Z,5.94
2023-01-23T07:07:57.856Z,5.45
2023-01-23T07:10:26.202Z,5.80
2023-01-23T07:12:52.627Z,5.88
2023-01-23T07:15:19.006Z,5.78
2023-01-23T07:17:45.517Z,5.34
2023-01-23T07:20:12.296Z,5.67
2023-01-23T07:22:38.690Z,5.85
2023-01-23T07:25:05.714Z,5.64
2023-01-23T07:27:33.102Z,5.78
2023-01-23T07:29:59.476Z,6.01
2023-01-23T07:32:29.179Z,5.41
2023-01-23T07:34:55.681Z,5.05
2023-01-23T07:37:22.247Z,5.79
2023-01-23T07:39:49.980Z,5.84
2023-01-23T07:42:16.664Z,5.46
2023-01-23T07:44:43.105Z,5.62
2023-01-23T07:47:10.833Z,5.17
2023-01-23T07:49:41.039Z,5.48
2023-01-23T07:52:07.519Z,5.43
2023-01-23T07:54:38.439Z,6.03
2023-01-23T07:57:05.002Z,5.74
2023-01-23T07:59:36.107Z,5.31
2023-01-23T08:02:02.492Z,5.18
2023-01-23T08:04:28.908Z,5.18
2023-01-23T08:06:55.294Z,5.86
2023-01-23T08:09:21.628Z,5.17
2023-01-23T08:11:50.748Z,5.38
2023-01-23T08:14:17.169Z,5.39
2023-01-23T08:16:43.765Z,6.06
2023-01-23T08:19:10.178Z,5.92
2023-01-23T08:21:36.669Z,6.02
2023-01-23T08:24:04.689Z,6.24
2023-01-23T08:26:31.097Z,5.25
2023-01-23T08:28:57.435Z,5.40
2023-01-23T08:31:23.844Z,5.96
2023-01-23T08:33:51.022Z,6.00
2023-01-23T08:36:18.589Z,6.21
2023-01-23T08:38:47.569Z,5.36
2023-01-23T08:41:14.495Z,5.57
2023-01-23T08:43:44.216Z,6.13
2023-01-23T08:46:11.561Z,5.40
2023-01-23T08:48:38.474Z,6.03
2023-01-23T08:51:25.552Z,6.08
2023-01-23T08:53:53.176Z,5.45
2023-01-23T08:56:22.179Z,5.97
2023-01-23T08:58:49.800Z,6.16
2023-01-23T09:01:21.349Z,5.66
2023-01-23T09:03:48.235Z,5.10
2023-01-23T09:06:17.656Z,6.18
2023-01-23T09:08:52.318Z,6.13
2023-01-23T09:11:19.188Z,5.28
2023-01-23T09:13:46.962Z,6.13
2023-01-23T09:16:13.554Z,4.90
2023-01-23T09:18:39.937Z,5.95
2023-01-23T09:21:11.399Z,5.39
2023-01-23T09:23:40.532Z,5.19
2023-01-23T09:26:09.771Z,6.27
2023-01-23T09:28:37.166Z,5.94
2023-01-23T09:31:07.279Z,5.57
2023-01-23T09:33:34.724Z,6.26
2023-01-23T09:36:01.833Z,6.41
2023-01-23T09:38:28.360Z,5.80
2023-01-23T09:40:57.451Z,6.48
2023-01-23T09:43:32.956Z,6.54
2023-01-23T09:46:12.734Z,6.48
2023-01-23T09:48:44.749Z,5.72
2023-01-23T09:51:53.024Z,6.61
2023-01-23T09:54:46.833Z,6.52
2023-01-23T09:57:21.075Z,6.01
2023-01-23T10:00:00.254Z,6.42
2023-01-23T10:02:34.226Z,6.27
2023-01-23T10:05:02.919Z,6.57
2023-01-23T10:07:59.970Z,6.51
2023-01-23T10:10:45.114Z,6.77
2023-01-23T10:13:22.871Z,6.58
2023-01-23T10:16:16.154Z,6.67
2023-01-23T10:19:15.476Z,6.91
2023-01-23T10:21:54.071Z,7.01
2023-01-23T10:24:45.843Z,6.89
2023-01-23T10:27:19.210Z,7.15
2023-01-23T10:29:50.000Z,6.78
2023-01-23T10:32:28.915Z,6.47
2023-01-23T10:35:02.345Z,7.13
2023-01-23T10:37:31.833Z,7.27
2023-01-23T10:40:02.728Z,7.02
2023-01-23T10:42:29.355Z,6.92
2023-01-23T10:44:55.826Z,6.50
2023-01-23T10:47:37.133Z,7.28
2023-01-23T10:50:05.990Z,6.74
2023-01-23T10:52:34.286Z,6.69
2023-01-23T10:55:00.965Z,7.10
2023-01-23T10:57:31.104Z,7.22
2023-01-23T11:00:04.054Z,6.48
2023-01-23T11:02:37.008Z,6.81
2023-01-23T11:05:46.866Z,7.39
2023-01-23T11:08:38.343Z,7.15
2023-01-23T11:11:25.119Z,7.42
2023-01-23T11:14:11.074Z,7.21
2023-01-23T11:16:38.221Z,7.25
2023-01-23T11:19:07.358Z,7.36
2023-01-23T11:21:37.880Z,6.13
2023-01-23T11:24:39.835Z,6.71
2023-01-23T11:27:13.028Z,7.29
2023-01-23T11:30:08.562Z,7.32
2023-01-23T11:32:45.286Z,7.12
2023-01-23T11:35:57.221Z,7.14
2023-01-23T11:38:30.741Z,7.06
2023-01-23T11:40:57.634Z,6.70
2023-01-23T11:43:24.375Z,7.41
2023-01-23T11:46:13.414Z,7.43
2023-01-23T11:48:48.825Z,7.52
2023-01-23T11:51:41.663Z,7.46
2023-01-23T11:54:37.340Z,7.54
2023-01-23T11:57:17.066Z,7.57
2023-01-23T12:00:10.813Z,7.62
2023-01-23T12:02:47.419Z,7.33
2023-01-23T12:06:17.713Z,7.69
2023-01-23T12:09:04.257Z,7.68
2023-01-23T12:11:57.870Z,7.64
2023-01-23T12:14:32.514Z,7.43
2023-01-23T12:17:22.490Z,7.76
2023-01-23T12:20:00.439Z,7.65
2023-01-23T12:22:29.819Z,7.88
2023-01-23T12:25:15.594Z,7.81
2023-01-23T12:27:45.058Z,7.84
2023-01-23T12:30:31.613Z,7.84
2023-01-23T12:33:37.574Z,7.84
2023-01-23T12:37:10.018Z,7.94
2023-01-23T12:40:09.864Z,7.81
2023-01-23T12:43:04.692Z,7.22
2023-01-23T12:48:35.065Z,6.71
2023-01-23T12:51:30.906Z,7.85
2023-01-23T12:54:15.392Z,6.99
2023-01-23T12:56:42.441Z,7.58
2023-01-23T12:59:16.980Z,7.51
2023-01-23T13:02:05.804Z,6.75
2023-01-23T13:05:07.864Z,7.60
2023-01-23T13:07:58.410Z,7.62
2023-01-23T13:11:31.297Z,7.74
2023-01-23T13:14:03.693Z,6.31
2023-01-23T13:16:58.218Z,6.34
2023-01-23T13:19:48.906Z,7.18
2023-01-23T13:22:27.749Z,7.65
2023-01-23T13:25:18.710Z,7.55
2023-01-23T13:27:58.606Z,7.30
2023-01-23T13:30:35.941Z,7.57
2023-01-23T13:33:08.486Z,7.69
2023-01-23T13:35:43.353Z,7.68
2023-01-23T13:38:21.959Z,7.65
2023-01-23T13:41:04.299Z,7.57
2023-01-23T13:44:04.241Z,6.90
2023-01-23T14:24:46.027Z,7.65
2023-01-23T14:27:29.418Z,7.59
2023-01-23T14:30:01.091Z,7.58
2023-01-23T14:32:33.386Z,7.31
2023-01-23T14:34:59.863Z,7.39
2023-01-23T14:37:29.121Z,7.33
2023-01-23T14:39:59.795Z,7.02
2023-01-23T14:42:30.328Z,7.46
2023-01-23T14:45:00.645Z,7.12
2023-01-23T14:47:42.234Z,7.39
2023-01-23T14:50:11.161Z,6.79
2023-01-23T14:52:37.607Z,7.17
2023-01-23T14:55:29.244Z,7.25
2023-01-23T14:57:58.864Z,7.46
2023-01-23T15:00:26.523Z,6.74
2023-01-23T15:02:54.497Z,6.87
2023-01-23T15:05:29.107Z,7.40
2023-01-23T15:08:20.164Z,7.25
2023-01-23T15:10:50.390Z,7.01
2023-01-23T15:13:55.601Z,7.51
2023-01-23T15:16:24.671Z,7.48
2023-01-23T15:19:03.890Z,7.44
2023-01-23T15:21:33.680Z,7.26
2023-01-23T15:24:09.114Z,7.41
2023-01-23T15:26:37.622Z,7.17
2023-01-23T15:29:06.848Z,7.43
2023-01-23T15:31:36.126Z,6.99
2023-01-23T15:34:14.943Z,7.36
2023-01-23T15:37:01.606Z,7.34
2023-01-23T15:39:32.693Z,7.28
2023-01-23T15:42:05.244Z,7.36
2023-01-23T15:44:32.826Z,7.42
2023-01-23T15:47:03.862Z,7.31
2023-01-23T15:49:32.242Z,7.11
2023-01-23T15:52:02.440Z,7.34
2023-01-23T15:54:34.061Z,6.75
2023-01-23T15:57:07.429Z,7.27
2023-01-23T15:59:34.843Z,7.36
2023-01-23T16:02:01.409Z,7.13
2023-01-23T16:04:27.782Z,7.22
2023-01-23T16:06:54.220Z,6.55
2023-01-23T16:09:30.480Z,6.64
2023-01-23T16:11:59.729Z,7.10
2023-01-23T16:14:26.722Z,6.66
2023-01-23T16:16:53.152Z,7.23
2023-01-23T16:19:19.688Z,7.10
2023-01-23T16:21:55.814Z,7.14
2023-01-23T16:24:26.926Z,7.09
2023-01-23T16:26:56.449Z,7.00
2023-01-23T16:29:32.127Z,7.32
2023-01-23T16:31:59.740Z,7.10
2023-01-23T16:34:26.601Z,7.11
2023-01-23T16:36:56.425Z,7.09
2023-01-23T16:39:26.599Z,7.21
2023-01-23T16:41:55.835Z,7.15
2023-01-23T16:44:23.910Z,7.00
2023-01-23T16:46:52.191Z,6.63
2023-01-23T16:49:19.433Z,7.06
2023-01-23T16:51:58.465Z,7.17
2023-01-23T16:54:26.208Z,6.88
2023-01-23T16:56:53.494Z,7.09
2023-01-23T16:59:30.559Z,6.95
2023-01-23T17:01:57.481Z,7.09
2023-01-23T17:04:23.887Z,6.98
2023-01-23T17:06:50.565Z,6.94
2023-01-23T17:09:17.545Z,6.25
2023-01-23T17:11:48.137Z,7.05
2023-01-23T17:14:28.828Z,6.58
2023-01-23T17:17:02.962Z,6.95
2023-01-23T17:19:31.071Z,7.14
2023-01-23T17:22:00.447Z,6.62
2023-01-23T17:24:27.058Z,6.66
2023-01-23T17:26:53.520Z,6.65
2023-01-23T17:29:20.137Z,6.93
2023-01-23T17:31:48.166Z,6.92
2023-01-23T17:34:24.121Z,6.13
2023-01-23T17:36:52.769Z,6.77
2023-01-23T17:39:20.569Z,6.92
2023-01-23T17:41:47.060Z,6.87
2023-01-23T17:44:13.579Z,6.84
2023-01-23T17:46:40.015Z,6.91
2023-01-23T17:49:30.370Z,7.06
2023-01-23T17:51:58.770Z,6.90
2023-01-23T17:54:26.262Z,6.90
2023-01-23T17:56:53.315Z,6.23
2023-01-23T17:59:19.988Z,6.77
2023-01-23T18:01:47.772Z,6.94
2023-01-23T18:04:19.406Z,6.88
2023-01-23T18:06:46.373Z,6.95
2023-01-23T18:09:13.885Z,6.95
2023-01-23T18:11:42.995Z,7.14
2023-01-23T18:14:28.398Z,7.17
2023-01-23T18:16:55.355Z,6.96
2023-01-23T18:19:24.368Z,6.90
2023-01-23T18:21:53.044Z,6.95
2023-01-23T18:24:31.227Z,6.88
2023-01-23T18:26:58.849Z,7.08
2023-01-23T18:29:31.029Z,7.04
2023-01-23T18:32:31.520Z,7.14
2023-01-23T18:35:20.917Z,6.97
2023-01-23T18:38:07.715Z,7.15
2023-01-23T18:41:03.549Z,7.02
2023-01-23T18:43:44.349Z,6.92
2023-01-23T18:46:16.087Z,6.88
2023-01-23T18:48:44.164Z,6.94
2023-01-23T18:51:32.651Z,6.27
2023-01-23T18:54:27.312Z,6.96
2023-01-23T18:57:31.884Z,6.23
2023-01-23T19:00:16.675Z,6.98
2023-01-23T19:02:52.225Z,6.93
2023-01-23T19:05:25.882Z,6.97
2023-01-23T19:07:52.491Z,6.66
2023-01-23T19:10:24.202Z,6.70
2023-01-23T19:12:59.784Z,7.01
2023-01-23T19:15:32.530Z,6.87
2023-01-23T19:18:09.297Z,6.28
2023-01-23T19:20:48.322Z,6.89
2023-01-23T19:23:32.362Z,6.09
2023-01-23T19:25:58.992Z,6.09
2023-01-23T19:28:25.604Z,6.15
2023-01-23T19:30:52.233Z,6.59
2023-01-23T19:33:19.668Z,6.75
2023-01-23T19:35:47.212Z,6.84
2023-01-23T19:38:14.992Z,6.66
2023-01-23T19:40:42.296Z,6.77
2023-01-23T19:43:15.874Z,6.82
2023-01-23T19:45:46.166Z,6.45
2023-01-23T19:48:13.453Z,6.25
2023-01-23T19:50:40.491Z,6.15
2023-01-23T19:53:07.223Z,6.18
2023-01-23T19:55:35.987Z,6.27
2023-01-23T19:58:02.575Z,6.50
2023-01-23T20:00:31.918Z,6.66
2023-01-23T20:02:58.726Z,6.60
2023-01-23T20:05:26.145Z,6.18
2023-01-23T20:07:56.373Z,6.74
2023-01-23T20:10:23.100Z,6.52
2023-01-23T20:12:52.041Z,6.97
2023-01-23T20:15:22.394Z,5.83
2023-01-23T20:17:49.219Z,6.42
2023-01-23T20:20:16.282Z,6.14
2023-01-23T20:22:43.768Z,6.34
2023-01-23T20:25:13.295Z,6.78
2023-01-23T20:27:40.990Z,6.71
2023-01-23T20:30:13.130Z,6.79
2023-01-23T20:32:39.648Z,7.01
2023-01-23T20:35:06.402Z,6.64
2023-01-23T20:37:32.803Z,6.82
2023-01-23T20:39:59.335Z,6.96
2023-01-23T20:42:25.709Z,6.04
2023-01-23T20:44:52.202Z,6.71
2023-01-23T20:47:18.618Z,6.82
2023-01-23T20:49:44.935Z,6.22
2023-01-23T20:52:29.890Z,6.51
2023-01-23T20:54:56.360Z,6.82
2023-01-23T20:57:22.758Z,6.98
2023-01-23T20:59:49.186Z,6.15
2023-01-23T21:02:29.178Z,6.70
2023-01-23T21:04:55.761Z,6.37
2023-01-23T21:07:22.591Z,7.05
2023-01-23T21:09:51.197Z,6.71
2023-01-23T21:12:17.719Z,6.22
2023-01-23T21:14:44.093Z,6.66
2023-01-23T21:17:10.695Z,6.15
2023-01-23T21:19:38.925Z,6.61
2023-01-23T21:22:07.130Z,6.93
2023-01-23T21:24:36.026Z,6.82
2023-01-23T21:27:04.411Z,6.84
2023-01-23T21:29:32.538Z,6.14
2023-01-23T21:31:59.448Z,6.96
2023-01-23T21:34:26.203Z,6.84
2023-01-23T21:36:53.073Z,6.82
2023-01-23T21:39:19.460Z,6.93
2023-01-23T21:41:45.944Z,6.71
2023-01-23T21:44:12.929Z,6.83
2023-01-23T21:46:39.584Z,6.66
2023-01-23T21:49:08.834Z,6.69
2023-01-23T21:51:35.379Z,6.72
2023-01-23T21:54:01.811Z,6.66
2023-01-23T21:56:28.248Z,6.77
2023-01-23T21:58:55.262Z,6.08
2023-01-23T22:01:42.201Z,6.10
2023-01-23T22:04:15.278Z,7.01
2023-01-23T22:06:43.194Z,6.36
2023-01-23T22:09:13.792Z,6.04
2023-01-23T22:11:45.430Z,6.11
2023-01-23T22:14:12.311Z,5.95
2023-01-23T22:16:54.570Z,5.34
2023-01-23T22:19:25.568Z,5.83
2023-01-23T22:21:58.609Z,6.42
2023-01-23T22:24:25.565Z,6.08
2023-01-23T22:26:56.314Z,5.59
2023-01-23T22:29:25.179Z,6.27
2023-01-23T22:31:56.034Z,5.73
2023-01-23T22:34:22.741Z,5.60
2023-01-23T22:36:49.336Z,5.38
2023-01-23T22:39:21.140Z,6.50
2023-01-23T22:41:50.346Z,6.80
2023-01-23T22:44:17.420Z,6.47
2023-01-23T22:46:44.262Z,6.88
2023-01-23T22:49:11.034Z,5.59
2023-01-23T22:51:37.691Z,6.71
2023-01-23T22:54:07.068Z,5.77
2023-01-23T22:56:33.496Z,6.21
2023-01-23T22:59:01.204Z,6.73
2023-01-23T23:01:28.131Z,5.90
2023-01-23T23:03:57.745Z,6.02
2023-01-23T23:06:24.588Z,6.82
2023-01-23T23:08:51.103Z,5.61
2023-01-23T23:11:20.373Z,6.99
2023-01-23T23:13:47.614Z,6.74
2023-01-23T23:16:20.765Z,5.74
2023-01-23T23:18:49.063Z,6.39
2023-01-23T23:21:18.220Z,6.83
2023-01-23T23:23:44.763Z,6.76
2023-01-23T23:26:12.541Z,6.82
2023-01-23T23:28:39.804Z,7.02
2023-01-23T23:31:07.707Z,6.85
2023-01-23T23:33:34.144Z,6.78
2023-01-23T23:36:00.483Z,6.42
2023-01-23T23:38:26.888Z,6.82
2023-01-23T23:40:58.351Z,6.71
2023-01-23T23:43:25.472Z,6.72
2023-01-23T23:45:57.202Z,6.69
2023-01-23T23:48:24.150Z,6.90
2023-01-23T23:50:51.039Z,6.38
2023-01-23T23:53:17.748Z,6.70
2023-01-23T23:55:44.484Z,6.72
2023-01-23T23:58:10.944Z,6.79
